»·PEaware :: N582WD KSNA-KVCV

N582WD :: KSNA-KVCV

FLIGHT INFORMATION

Flight Status: Arrived
Operator: Privately registered:
United States
More flights under this callsign
Pilot: Kaleb W. (11686)
Aircraft: ECLIPSE 500
(EA50)
More flights by this aircraft type
Origin: KSNA John Wayne-Orange Co
United States
Destination: KVCV Socal Logistics
United States
More flights between these airports :: More routes between these airports
Route: PIGGN2 PIGGN PDZ V442 APLES
File this flight plan on PilotEdge
Remarks: RMK / SIMBRIEF
Altitude:
(Current/Filed)
16,000ft
Speed:
(Current/Filed)
339kts
Departed: 04-Mar-21 07:24 PM
Arrived: 04-Mar-21 08:02 PM
Distance/Time
Traveled:
60nm/0:38
Distance/Time
To Go:
Arrived

Flight Plot

Page will automatically refresh every two minutes.

Flight plan parsing failed; only flown route is shown


Map Options




Map Legend


Flown Route
Filed Route
Departure Airport
Arrival Airport
Navaid (VOR, NDB)
Fix

Horizontal Profiles

Position Reports

Time Latitude Longitude Heading Altitude Ground
Speed
04-Mar-21 18:55 33.675741 -117.871320 38 49ft 0kts
04-Mar-21 18:56 33.675741 -117.871320 38 49ft 0kts
04-Mar-21 18:57 33.675741 -117.871320 38 49ft 0kts
04-Mar-21 18:58 33.675741 -117.871320 38 49ft 0kts
04-Mar-21 18:59 33.675741 -117.871320 38 49ft 0kts
04-Mar-21 19:00 33.675741 -117.871320 38 49ft 0kts
04-Mar-21 19:01 33.675741 -117.871320 38 49ft 0kts
04-Mar-21 19:02 33.675741 -117.871320 38 49ft 0kts
04-Mar-21 19:03 33.675741 -117.871320 38 49ft 0kts
04-Mar-21 19:04 33.675741 -117.871320 38 49ft 0kts
04-Mar-21 19:05 33.675741 -117.871320 38 49ft 0kts
04-Mar-21 19:06 33.675741 -117.871320 38 49ft 0kts
04-Mar-21 19:07 33.675741 -117.871320 38 49ft 0kts
04-Mar-21 19:08 33.675741 -117.871320 38 49ft 0kts
04-Mar-21 19:09 33.675741 -117.871320 38 49ft 0kts
04-Mar-21 19:10 33.675741 -117.871320 38 49ft 0kts
04-Mar-21 19:11 33.675742 -117.871320 38 49ft 0kts
04-Mar-21 19:12 33.675742 -117.871320 38 49ft 0kts
04-Mar-21 19:13 33.675742 -117.871320 38 49ft 0kts
04-Mar-21 19:14 33.675742 -117.871320 38 49ft 0kts
04-Mar-21 19:15 33.675742 -117.871320 38 49ft 0kts
04-Mar-21 19:16 33.675848 -117.871082 67 49ft 3kts
04-Mar-21 19:17 33.676645 -117.869743 27 48ft 9kts
04-Mar-21 19:18 33.678427 -117.868642 29 46ft 8kts
04-Mar-21 19:19 33.681623 -117.866759 26 39ft 9kts
04-Mar-21 19:20 33.681933 -117.866050 99 39ft 0kts
04-Mar-21 19:21 33.681933 -117.866050 99 39ft 0kts
04-Mar-21 19:22 33.681889 -117.865886 115 39ft 6kts
04-Mar-21 19:23 33.669580 -117.872582 206 370ft 123kts
04-Mar-21 19:24 33.628203 -117.883946 192 2730ft 169kts
04-Mar-21 19:25 33.581607 -117.897097 193 5235ft 177kts
04-Mar-21 19:26 33.536495 -117.877636 151 7694ft 182kts
04-Mar-21 19:27 33.499630 -117.839039 114 9965ft 187kts
04-Mar-21 19:28 33.477585 -117.781776 113 12088ft 193kts
04-Mar-21 19:29 33.480479 -117.704155 81 12303ft 279kts
04-Mar-21 19:30 33.520170 -117.615809 59 13277ft 312kts
04-Mar-21 19:31 33.563558 -117.524882 59 14779ft 318kts
04-Mar-21 19:32 33.638595 -117.490040 353 15948ft 329kts
04-Mar-21 19:33 33.727565 -117.503208 354 15878ft 326kts
04-Mar-21 19:34 33.818713 -117.516051 354 15819ft 330kts
04-Mar-21 19:35 33.910078 -117.528454 359 15798ft 330kts
04-Mar-21 19:36 33.992759 -117.485523 26 15898ft 324kts
04-Mar-21 19:37 34.073230 -117.437070 26 15978ft 324kts
04-Mar-21 19:38 34.154062 -117.388397 26 15990ft 325kts
04-Mar-21 19:39 34.235137 -117.339485 27 15790ft 325kts
04-Mar-21 19:40 34.313819 -117.291924 27 14751ft 311kts
04-Mar-21 19:41 34.390699 -117.245348 27 13160ft 310kts
04-Mar-21 19:42 34.465174 -117.200132 26 10773ft 296kts
04-Mar-21 19:43 34.537631 -117.156134 25 8370ft 289kts
04-Mar-21 19:44 34.603483 -117.130375 18 7876ft 220kts
04-Mar-21 19:45 34.664680 -117.119903 352 6562ft 209kts
04-Mar-21 19:46 34.720937 -117.130385 351 7109ft 206kts
04-Mar-21 19:47 34.777932 -117.141269 351 7837ft 210kts
04-Mar-21 19:48 34.834310 -117.152327 351 7650ft 208kts
04-Mar-21 19:49 34.881580 -117.183516 291 6087ft 196kts
04-Mar-21 19:50 34.898007 -117.234664 291 6078ft 146kts
04-Mar-21 19:51 34.909070 -117.287841 262 6081ft 169kts
04-Mar-21 19:52 34.901643 -117.344053 261 6080ft 167kts
04-Mar-21 19:53 34.871365 -117.382796 212 6081ft 168kts
04-Mar-21 19:54 34.822747 -117.389068 180 4945ft 185kts
04-Mar-21 19:55 34.777437 -117.388517 180 4920ft 157kts
04-Mar-21 19:56 34.734299 -117.387986 180 4470ft 152kts
04-Mar-21 19:57 34.692862 -117.387522 180 4205ft 149kts
04-Mar-21 19:58 34.654360 -117.387167 180 3492ft 130kts
04-Mar-21 19:59 34.620364 -117.386727 180 2847ft 122kts
04-Mar-21 20:00 34.598260 -117.386536 180 2848ft 43kts
04-Mar-21 20:01 34.594903 -117.385178 88 2854ft 1kts
04-Mar-21 20:02 34.593163 -117.381891 134 2858ft 17kts
04-Mar-21 20:03 34.589526 -117.377326 111 2868ft 14kts

Navigation Log

Ident Type
Flight plan parsing failed, navigation log unavailable